Time;durP1;ratioP1;P1;durP2;ratioP2;P2;SDS_P1;SDS_P2;PMS_P1;PMS_P2;Temp;Humidity;BMP_temperature;BMP_pressure;BME280_temperature;BME280_humidity;BME280_pressure;Samples;Min_cycle;Max_cycle;Signal;HPM_P1;HPM_P2
2023/03/02 00:04:31;;;;;;;173.20;75.40;;;;;;;-4.95;79.22;99884.04;272174;1270;22349;-84
2023/03/02 00:10:53;;;;;;;169.80;73.60;;;;;;;-4.99;79.48;99879.79;271726;1269;23146;-83
2023/03/02 00:17:16;;;;;;;166.50;75.90;;;;;;;-5.06;79.61;99885.74;272741;1269;22579;-82
2023/03/02 00:23:26;;;;;;;166.50;76.00;;;;;;;-5.11;79.98;99891.25;269591;1270;23725;-83
2023/03/02 00:29:29;;;;;;;194.90;83.80;;;;;;;-5.10;80.23;99893.39;271509;1270;25321;-82
2023/03/02 00:36:09;;;;;;;174.80;77.50;;;;;;;-5.08;79.98;99892.77;273039;1263;23215;-83
2023/03/02 00:42:11;;;;;;;170.10;76.00;;;;;;;-5.07;80.39;99887.28;273311;1271;22194;-83
2023/03/02 00:48:21;;;;;;;196.10;85.40;;;;;;;-5.10;80.38;99884.48;270978;1269;22983;-83
2023/03/02 01:02:17;;;;;;;185.00;79.00;;;;;;;-5.26;80.41;99875.39;273368;1269;22309;-83
2023/03/02 01:08:24;;;;;;;183.70;77.20;;;;;;;-5.25;81.22;99865.27;270106;1271;23315;-83
2023/03/02 01:14:26;;;;;;;192.70;82.60;;;;;;;-5.27;81.24;99861.57;270208;1269;22323;-84
2023/03/02 01:20:28;;;;;;;184.00;81.60;;;;;;;-5.35;81.38;99854.97;272269;1269;22546;-83
2023/03/02 01:34:20;;;;;;;179.60;79.50;;;;;;;-5.37;81.94;99850.88;272973;1269;22206;-83
2023/03/02 01:40:22;;;;;;;185.30;78.00;;;;;;;-5.44;81.90;99850.59;272587;1269;22571;-83
2023/03/02 01:54:21;;;;;;;175.20;74.60;;;;;;;-5.50;82.12;99843.21;272436;1271;23375;-83
2023/03/02 02:00:57;;;;;;;162.00;71.10;;;;;;;-5.58;82.32;99830.86;271195;1261;22534;-82
2023/03/02 02:07:11;;;;;;;166.20;72.40;;;;;;;-5.66;82.33;99821.75;269663;1270;22540;-83
2023/03/02 02:13:15;;;;;;;158.90;69.30;;;;;;;-5.67;82.63;99815.92;269702;1271;22635;-82
2023/03/02 02:19:59;;;;;;;156.60;65.50;;;;;;;-5.69;82.65;99812.71;271347;1271;22304;-83
2023/03/02 02:26:30;;;;;;;146.30;64.50;;;;;;;-5.73;82.82;99804.81;269741;1273;25378;-83
2023/03/02 02:32:48;;;;;;;148.50;61.70;;;;;;;-5.76;83.07;99798.77;269872;1270;22521;-82
2023/03/02 02:39:13;;;;;;;150.70;63.70;;;;;;;-5.75;83.23;99798.08;269824;1261;24356;-82
2023/03/02 02:45:55;;;;;;;144.20;61.60;;;;;;;-5.78;83.11;99794.05;269856;1269;22554;-82
2023/03/02 02:52:00;;;;;;;147.40;63.20;;;;;;;-5.91;83.20;99792.16;269988;1268;22514;-82
2023/03/02 03:05:15;;;;;;;152.60;65.20;;;;;;;-5.95;83.32;99784.27;271426;1269;22506;-83
2023/03/02 03:11:37;;;;;;;151.20;66.10;;;;;;;-5.91;83.72;99780.32;271930;1270;23134;-82
2023/03/02 03:17:39;;;;;;;153.50;64.10;;;;;;;-5.88;84.00;99778.70;272238;1264;22229;-82
2023/03/02 03:23:41;;;;;;;154.20;66.80;;;;;;;-5.96;83.63;99771.26;271760;1270;24246;-82
2023/03/02 03:30:25;;;;;;;157.70;69.70;;;;;;;-5.98;83.91;99763.33;270577;1270;22513;-82
2023/03/02 03:36:30;;;;;;;145.20;63.10;;;;;;;-5.99;83.91;99757.08;270309;1271;22528;-82
2023/03/02 03:42:38;;;;;;;159.60;67.70;;;;;;;-6.06;84.10;99753.80;270001;1270;23434;-81
2023/03/02 03:49:14;;;;;;;161.00;65.30;;;;;;;-6.10;84.08;99750.62;269529;1264;23928;-82
2023/03/02 03:55:16;;;;;;;160.00;67.60;;;;;;;-6.18;84.37;99740.40;270923;1261;22278;-82
2023/03/02 04:01:20;;;;;;;156.50;67.40;;;;;;;-6.17;84.48;99739.76;270118;1270;23564;-84
2023/03/02 04:07:32;;;;;;;172.80;71.50;;;;;;;-6.18;84.46;99742.57;269967;1271;24233;-83
2023/03/02 04:13:34;;;;;;;157.00;63.70;;;;;;;-6.22;84.37;99740.39;270776;1269;23503;-81
2023/03/02 04:19:50;;;;;;;155.40;65.90;;;;;;;-6.35;84.27;99740.23;270816;1270;22651;-82
2023/03/02 04:25:52;;;;;;;150.90;63.20;;;;;;;-6.36;84.78;99740.27;270046;1259;25265;-81
2023/03/02 04:32:16;;;;;;;181.00;75.20;;;;;;;-6.36;85.04;99742.30;271389;1270;22658;-81
2023/03/02 04:39:05;;;;;;;173.70;71.10;;;;;;;-6.34;85.01;99739.02;272668;1270;22385;-81
2023/03/02 04:45:08;;;;;;;172.80;73.70;;;;;;;-6.38;84.88;99733.21;272218;1270;22682;-82
2023/03/02 04:51:16;;;;;;;171.10;73.20;;;;;;;-6.40;84.98;99731.65;270871;1264;22521;-80
2023/03/02 04:57:34;;;;;;;168.80;68.80;;;;;;;-6.44;85.03;99728.66;270400;1263;22579;-81
2023/03/02 05:03:37;;;;;;;166.60;66.30;;;;;;;-6.46;85.22;99732.30;271651;1260;22318;-81
2023/03/02 05:10:31;;;;;;;164.70;67.20;;;;;;;-6.49;85.33;99731.42;271584;1262;22304;-82
2023/03/02 05:16:58;;;;;;;163.60;69.00;;;;;;;-6.52;85.31;99734.10;272050;1270;22184;-81
2023/03/02 05:23:23;;;;;;;163.60;64.40;;;;;;;-6.53;85.54;99737.13;271876;1269;23145;-80
2023/03/02 05:29:25;;;;;;;155.90;63.50;;;;;;;-6.50;85.73;99742.12;272452;1270;22521;-80
2023/03/02 05:35:29;;;;;;;143.90;62.50;;;;;;;-6.46;85.91;99744.88;271096;1257;25339;-79
2023/03/02 05:41:51;;;;;;;152.20;62.60;;;;;;;-6.41;86.16;99744.15;270324;1270;23826;-80
2023/03/02 05:47:53;;;;;;;144.70;61.00;;;;;;;-6.37;86.31;99745.27;270843;1262;22624;-81
2023/03/02 05:53:55;;;;;;;153.40;62.20;;;;;;;-6.29;86.60;99745.96;270712;1269;22617;-81
2023/03/02 05:59:57;;;;;;;151.40;62.70;;;;;;;-6.22;86.76;99750.69;272748;1264;27569;-81
2023/03/02 06:05:59;;;;;;;160.10;63.60;;;;;;;-5.99;87.16;99751.91;270365;1264;24345;-80
2023/03/02 06:12:03;;;;;;;162.50;64.50;;;;;;;-5.73;87.23;99756.66;271045;1270;22905;-81
2023/03/02 06:18:11;;;;;;;166.10;67.20;;;;;;;-5.38;87.73;99763.41;271828;1269;22353;-80
2023/03/02 06:24:13;;;;;;;170.00;68.80;;;;;;;-4.83;88.08;99765.23;271232;1270;22320;-82
2023/03/02 06:30:58;;;;;;;168.60;74.80;;;;;;;-4.38;87.18;99759.96;271725;1263;22313;-81
2023/03/02 06:37:00;;;;;;;153.30;67.50;;;;;;;-3.82;87.67;99758.02;271576;1269;23134;-83
2023/03/02 06:43:20;;;;;;;163.60;72.30;;;;;;;-3.33;88.13;99755.23;272019;1269;23063;-83
2023/03/02 06:49:44;;;;;;;187.70;81.90;;;;;;;-2.84;88.46;99761.72;270016;1269;25304;-81
2023/03/02 06:55:46;;;;;;;178.40;80.60;;;;;;;-2.52;87.90;99764.30;269752;1270;22550;-81
2023/03/02 07:01:49;;;;;;;192.60;84.90;;;;;;;-2.40;87.67;99764.81;269794;1269;22520;-82
2023/03/02 07:08:43;;;;;;;202.00;85.50;;;;;;;-2.27;87.22;99767.09;271451;1270;22312;-82
2023/03/02 07:22:39;;;;;;;180.40;77.70;;;;;;;-1.77;87.47;99773.92;272163;1271;22386;-81
2023/03/02 07:28:43;;;;;;;175.00;79.70;;;;;;;-1.43;88.08;99772.56;270121;1270;22541;-81
2023/03/02 07:35:24;;;;;;;165.10;75.20;;;;;;;-0.87;88.12;99767.70;270395;1269;22426;-82
2023/03/02 07:41:26;;;;;;;170.80;80.80;;;;;;;-0.41;87.83;99764.41;270515;1254;23510;-82
2023/03/02 07:47:29;;;;;;;168.50;78.10;;;;;;;-0.07;87.34;99756.58;271833;1257;22576;-81
2023/03/02 07:53:31;;;;;;;184.40;81.60;;;;;;;0.30;87.70;99751.70;269868;1261;22542;-81
2023/03/02 07:59:33;;;;;;;187.40;85.20;;;;;;;0.83;87.86;99748.08;269973;1270;22534;-81
2023/03/02 08:05:40;;;;;;;167.80;76.30;;;;;;;1.36;88.02;99745.58;271860;1269;22339;-81
2023/03/02 08:12:23;;;;;;;;;;;;;;;;;;;;;
2023/03/02 08:18:27;;;;;;;141.80;64.90;;;;;;;2.17;85.73;99750.95;272346;1270;22360;-83
2023/03/02 08:24:29;;;;;;;132.20;61.60;;;;;;;2.58;84.90;99753.52;271354;1270;22629;-81
2023/03/02 08:31:04;;;;;;;120.80;56.60;;;;;;;2.97;84.17;99751.92;270792;1269;23822;-85
2023/03/02 08:37:06;;;;;;;119.60;58.50;;;;;;;3.33;83.35;99741.02;271679;1270;22206;-82
2023/03/02 08:43:30;;;;;;;114.70;52.70;;;;;;;3.86;82.79;99732.76;271451;1269;23420;-83
2023/03/02 08:50:14;;;;;;;101.40;51.40;;;;;;;4.62;82.42;99729.92;272914;1271;22583;-83
2023/03/02 08:56:56;;;;;;;;;;;;;;;;;;;;;
2023/03/02 09:04:03;;;;;;;91.00;46.60;;;;;;;6.13;80.46;99714.77;270164;1270;25365;-83
2023/03/02 09:17:50;;;;;;;75.30;41.70;;;;;;;7.51;78.38;99705.08;270566;1270;22231;-85
2023/03/02 09:24:16;;;;;;;73.10;39.80;;;;;;;7.99;76.91;99699.93;272275;1274;22188;-86
2023/03/02 09:30:31;;;;;;;72.10;39.20;;;;;;;8.62;76.73;99697.18;272858;1269;22456;-85
2023/03/02 09:36:33;;;;;;;74.90;40.00;;;;;;;8.89;75.60;99693.77;272246;1264;22357;-86
2023/03/02 09:42:50;;;;;;;68.40;35.70;;;;;;;9.15;73.84;99688.80;271473;1269;22385;-89
2023/03/02 09:49:05;;;;;;;63.00;35.00;;;;;;;9.57;73.02;99689.60;272802;1269;22738;-87
2023/03/02 09:55:19;;;;;;;57.40;32.70;;;;;;;10.49;71.20;99685.55;272539;1270;22196;-88
2023/03/02 10:01:57;;;;;;;53.20;29.80;;;;;;;10.86;70.42;99678.70;272904;1269;22313;-89
2023/03/02 10:08:33;;;;;;;54.30;32.20;;;;;;;11.05;69.27;99667.42;273057;1262;23348;-90
2023/03/02 10:14:41;;;;;;;55.00;31.30;;;;;;;11.26;67.64;99659.90;273320;1269;22391;-89
2023/03/02 10:20:58;;;;;;;47.70;29.60;;;;;;;11.70;67.13;99652.04;273277;1270;22298;-90
2023/03/02 10:27:24;;;;;;;46.50;29.30;;;;;;;12.16;65.03;99651.45;272974;1269;23126;-89
2023/03/02 10:33:32;;;;;;;45.70;27.80;;;;;;;12.20;64.81;99646.11;272591;1270;22352;-90
2023/03/02 10:39:37;;;;;;;46.30;27.30;;;;;;;12.39;64.64;99641.44;273179;1270;22171;-88
2023/03/02 10:45:41;;;;;;;;;;;;;;;12.47;63.20;99632.67;272868;1270;419436;-89
2023/03/02 10:51:43;;;;;;;50.00;28.80;;;;;;;12.80;62.47;99622.90;273136;1269;22319;-89
2023/03/02 10:58:21;;;;;;;49.40;29.10;;;;;;;12.78;61.97;99614.96;271339;1270;22487;-89
2023/03/02 11:04:30;;;;;;;38.20;25.00;;;;;;;12.65;61.13;99604.19;273268;1271;23088;-89
2023/03/02 11:10:49;;;;;;;42.80;27.70;;;;;;;12.22;60.41;99597.51;273213;1255;22516;-88
2023/03/02 11:16:57;;;;;;;47.60;28.00;;;;;;;11.79;58.84;99589.89;271282;1270;22612;-89
2023/03/02 11:23:11;;;;;;;34.50;22.00;;;;;;;11.80;58.05;99580.34;270987;1265;22903;-89
2023/03/02 11:29:22;;;;;;;42.70;28.40;;;;;;;11.99;56.52;99573.02;273101;1270;22220;-88
2023/03/02 11:35:37;;;;;;;851.00;531.60;;;;;;;12.23;56.12;99567.80;272326;1262;22520;-89
2023/03/02 11:41:40;;;;;;;456.50;282.70;;;;;;;12.46;55.37;99554.46;271417;1269;24249;-89
2023/03/02 11:47:49;;;;;;;80.70;48.40;;;;;;;12.31;55.06;99546.89;273170;1269;22150;-88
2023/03/02 11:54:01;;;;;;;109.90;69.00;;;;;;;11.97;54.02;99536.55;272937;1269;23072;-90
2023/03/02 12:00:37;;;;;;;;;;;;;;;;;;;;;
2023/03/02 12:06:44;;;;;;;183.20;100.70;;;;;;;11.29;52.52;99529.67;272835;1271;22604;-90
2023/03/02 12:12:59;;;;;;;90.60;44.50;;;;;;;11.09;51.60;99522.20;273124;1270;24250;-89
2023/03/02 12:19:15;;;;;;;174.00;97.40;;;;;;;10.86;51.25;99522.02;272733;1271;23630;-88
2023/03/02 12:25:36;;;;;;;341.40;235.80;;;;;;;10.74;50.50;99518.77;272810;1264;22236;-89
2023/03/02 12:31:57;;;;;;;42.60;24.10;;;;;;;10.48;49.87;99517.38;272560;1271;22198;-91
2023/03/02 12:38:32;;;;;;;164.20;98.10;;;;;;;10.12;49.29;99507.57;272633;1270;22664;-90
2023/03/02 12:44:49;;;;;;;57.40;32.50;;;;;;;9.83;49.22;99506.77;272046;1271;22269;-90
2023/03/02 12:51:01;;;;;;;37.40;23.00;;;;;;;9.67;49.09;99498.45;271779;1271;25341;-90
2023/03/02 12:57:17;;;;;;;31.20;19.00;;;;;;;9.58;48.76;99489.48;271013;1270;24049;-91
2023/03/02 13:03:44;;;;;;;39.30;19.80;;;;;;;9.52;48.61;99483.29;271761;1271;22205;-90
2023/03/02 13:09:50;;;;;;;;;;;;;;;9.46;48.20;99474.54;271150;1270;23669;-90
2023/03/02 13:15:58;;;;;;;;;;;;;;;9.27;47.88;99462.30;270581;1267;22491;-91
2023/03/02 13:22:04;;;;;;;34.70;17.20;;;;;;;8.99;46.88;99449.08;270336;1270;22384;-91
2023/03/02 13:28:26;;;;;;;26.60;16.00;;;;;;;8.88;47.45;99437.73;271061;1270;24319;-90
2023/03/02 13:34:31;;;;;;;42.50;20.40;;;;;;;8.95;47.88;99430.09;269978;1270;22526;-90
2023/03/02 13:40:47;;;;;;;27.20;14.60;;;;;;;9.04;47.48;99429.13;270336;1271;22530;-91
2023/03/02 13:46:49;;;;;;;26.60;14.80;;;;;;;8.93;47.15;99420.07;269750;1270;22374;-90
2023/03/02 13:52:52;;;;;;;27.80;15.30;;;;;;;8.89;47.45;99415.42;271122;1270;24215;-90
2023/03/02 13:58:54;;;;;;;39.20;16.90;;;;;;;8.88;47.31;99414.31;270530;1271;22575;-90
2023/03/02 14:04:59;;;;;;;27.40;13.70;;;;;;;8.81;47.18;99410.25;272124;1271;22422;-91
2023/03/02 14:11:01;;;;;;;37.20;18.20;;;;;;;8.77;47.15;99400.17;270375;1264;27498;-89
2023/03/02 14:17:13;;;;;;;46.30;20.20;;;;;;;8.74;47.23;99394.31;269782;1270;22536;-90
2023/03/02 14:23:17;;;;;;;26.90;15.00;;;;;;;8.67;47.08;99391.64;270046;1271;22534;-90
2023/03/02 14:29:28;;;;;;;30.00;14.40;;;;;;;8.52;47.09;99390.65;270912;1271;22491;-89
2023/03/02 14:35:30;;;;;;;67.70;32.60;;;;;;;8.46;47.09;99384.34;270534;1269;22543;-91
2023/03/02 14:41:37;;;;;;;53.50;25.20;;;;;;;8.45;47.21;99379.87;272492;1270;23537;-90
2023/03/02 14:47:43;;;;;;;26.60;13.20;;;;;;;8.41;47.21;99380.92;272051;1270;23118;-91
2023/03/02 14:53:50;;;;;;;32.00;14.60;;;;;;;8.34;47.27;99378.79;270856;1271;22548;-90
2023/03/02 14:59:54;;;;;;;29.60;15.70;;;;;;;8.16;47.37;99372.44;269591;1271;22526;-89
2023/03/02 15:05:56;;;;;;;31.90;16.00;;;;;;;7.95;47.55;99368.99;270122;1265;22559;-89
2023/03/02 15:12:01;;;;;;;34.70;19.00;;;;;;;7.77;47.46;99368.02;270028;1270;23585;-90
2023/03/02 15:18:03;;;;;;;38.60;18.00;;;;;;;7.60;47.80;99368.96;270597;1270;22561;-90
2023/03/02 15:24:08;;;;;;;38.80;19.30;;;;;;;7.41;48.17;99367.07;269579;1271;22619;-90
2023/03/02 15:30:12;;;;;;;43.60;20.10;;;;;;;7.22;48.49;99366.11;269974;1271;22524;-89
2023/03/02 15:36:14;;;;;;;39.20;20.00;;;;;;;7.04;48.68;99367.59;270686;1271;22737;-89
2023/03/02 15:42:18;;;;;;;37.10;19.50;;;;;;;6.84;48.83;99369.45;269718;1264;22546;-90
2023/03/02 15:48:23;;;;;;;39.40;20.10;;;;;;;6.68;49.10;99368.77;270541;1271;23232;-91
2023/03/02 15:54:30;;;;;;;;;;;;;;;6.51;49.57;99363.86;269750;1264;24215;-90
2023/03/02 16:00:36;;;;;;;45.80;24.80;;;;;;;6.26;49.97;99366.13;269661;1271;22538;-90
2023/03/02 16:06:48;;;;;;;42.30;20.10;;;;;;;6.07;50.48;99364.57;269718;1270;22603;-91
2023/03/02 16:19:45;;;;;;;36.20;18.70;;;;;;;5.63;51.93;99371.81;271190;1270;24478;-91
2023/03/02 16:25:48;;;;;;;38.60;20.90;;;;;;;5.43;52.26;99378.83;271465;1271;22199;-90
2023/03/02 16:31:54;;;;;;;41.60;20.50;;;;;;;5.25;52.83;99384.17;271037;1271;22551;-89
2023/03/02 16:38:10;;;;;;;43.10;21.80;;;;;;;4.97;53.24;99382.53;270268;1271;23965;-89
2023/03/02 16:44:16;;;;;;;46.20;23.20;;;;;;;4.67;54.02;99385.48;270986;1271;22513;-90
2023/03/02 16:50:19;;;;;;;45.40;23.50;;;;;;;4.47;54.60;99392.02;271004;1264;23130;-89
2023/03/02 16:56:21;;;;;;;41.50;23.00;;;;;;;4.31;55.14;99392.52;271976;1270;22988;-90
2023/03/02 17:02:26;;;;;;;41.70;21.80;;;;;;;4.13;55.68;99392.83;270858;1271;23749;-90
2023/03/02 17:08:30;;;;;;;58.00;28.30;;;;;;;3.96;56.12;99400.73;270637;1263;22543;-89
2023/03/02 17:14:40;;;;;;;61.70;30.90;;;;;;;3.79;56.65;99404.58;270228;1263;23896;-90
2023/03/02 17:20:51;;;;;;;58.90;29.70;;;;;;;3.53;57.01;99406.13;270954;1270;22230;-90
2023/03/02 17:26:54;;;;;;;66.30;32.60;;;;;;;3.30;57.75;99410.31;265016;1270;10001458;-90
2023/03/02 17:33:05;;;;;;;79.10;36.10;;;;;;;3.08;58.03;99412.81;271989;1270;22323;-90
2023/03/02 17:39:07;;;;;;;78.80;37.10;;;;;;;2.74;58.55;99409.67;272026;1271;22526;-89
2023/03/02 17:45:21;;;;;;;100.80;45.10;;;;;;;2.37;59.18;99412.30;271998;1271;23628;-90
2023/03/02 17:51:27;;;;;;;125.90;53.30;;;;;;;2.11;59.49;99408.61;272281;1271;22740;-89
2023/03/02 17:57:29;;;;;;;120.70;53.10;;;;;;;1.85;60.10;99403.77;270313;1272;22556;-90
2023/03/02 18:04:21;;;;;;;130.80;57.60;;;;;;;1.67;60.87;99401.41;272823;1270;22528;-91
2023/03/02 18:10:29;;;;;;;128.00;57.40;;;;;;;1.56;61.41;99401.33;272436;1270;22486;-89
2023/03/02 18:16:32;;;;;;;137.30;55.20;;;;;;;1.39;61.97;99401.70;272492;1271;22500;-89
2023/03/02 18:22:35;;;;;;;143.60;58.40;;;;;;;1.32;62.49;99397.20;273080;1271;22322;-90
2023/03/02 18:28:37;;;;;;;150.60;64.80;;;;;;;1.25;63.01;99400.17;271882;1271;22331;-89
2023/03/02 18:34:44;;;;;;;115.20;51.20;;;;;;;1.02;63.79;99404.73;272089;1271;22394;-90
2023/03/02 18:40:53;;;;;;;112.40;54.80;;;;;;;0.79;64.41;99408.04;271623;1270;23808;-90
2023/03/02 18:47:03;;;;;;;97.60;45.20;;;;;;;0.59;65.18;99408.81;272095;1270;22311;-90
2023/03/02 18:53:07;;;;;;;102.20;49.50;;;;;;;0.42;65.15;99412.32;272814;1269;22339;-89
2023/03/02 18:59:09;;;;;;;94.20;46.70;;;;;;;0.01;64.67;99420.23;272627;1270;22326;-90
2023/03/02 19:05:12;;;;;;;103.90;49.00;;;;;;;-0.05;66.78;99418.13;272273;1271;23649;-90
2023/03/02 19:11:17;;;;;;;93.40;45.60;;;;;;;-0.01;66.74;99420.54;272469;1271;22326;-90
2023/03/02 19:17:24;;;;;;;102.10;48.50;;;;;;;0.01;67.30;99418.35;272844;1270;23360;-90
2023/03/02 19:23:26;;;;;;;107.50;50.90;;;;;;;-0.10;68.07;99420.69;273133;1270;22184;-89
2023/03/02 19:29:31;;;;;;;101.10;48.50;;;;;;;-0.25;68.29;99424.91;273019;1270;22327;-89
2023/03/02 19:35:37;;;;;;;109.90;50.70;;;;;;;-0.45;68.69;99421.20;272836;1271;22220;-89
2023/03/02 19:41:40;;;;;;;146.60;66.80;;;;;;;-0.58;69.27;99421.52;273056;1272;22180;-89
2023/03/02 19:47:48;;;;;;;124.20;56.20;;;;;;;-0.71;69.85;99422.04;272824;1272;22198;-90
2023/03/02 19:53:53;;;;;;;111.00;56.00;;;;;;;-0.79;70.37;99424.67;272907;1273;22981;-90
2023/03/02 19:59:59;;;;;;;126.40;60.20;;;;;;;-0.87;70.73;99424.35;272801;1270;22073;-89
2023/03/02 20:06:02;;;;;;;121.70;56.80;;;;;;;-0.97;70.97;99425.63;272735;1271;22345;-90
2023/03/02 20:12:06;;;;;;;127.20;59.50;;;;;;;-1.04;71.44;99426.14;273190;1271;23514;-89
2023/03/02 20:18:14;;;;;;;139.70;61.00;;;;;;;-1.14;71.68;99422.35;272945;1271;22177;-89
2023/03/02 20:24:16;;;;;;;140.00;62.70;;;;;;;-1.28;72.16;99415.38;272527;1270;22340;-88
2023/03/02 20:30:30;;;;;;;130.70;57.80;;;;;;;-1.37;72.54;99418.83;271049;1271;23800;-88
2023/03/02 20:36:34;;;;;;;138.60;58.70;;;;;;;-1.51;72.62;99414.80;272697;1269;23219;-89
2023/03/02 20:42:38;;;;;;;138.40;58.70;;;;;;;-1.67;73.12;99412.02;271144;1270;22953;-89
2023/03/02 20:48:40;;;;;;;147.10;64.60;;;;;;;-1.72;73.97;99407.84;271131;1270;22403;-89
2023/03/02 20:54:45;;;;;;;151.10;64.90;;;;;;;-1.69;74.81;99408.66;271025;1270;23828;-90
2023/03/02 21:00:55;;;;;;;151.40;69.60;;;;;;;-1.64;75.36;99405.02;273069;1270;22300;-90
2023/03/02 21:06:58;;;;;;;159.00;70.00;;;;;;;-1.61;75.73;99397.45;270299;1270;22649;-89
2023/03/02 21:13:01;;;;;;;146.20;65.40;;;;;;;-1.67;75.78;99393.02;270853;1270;23167;-89
2023/03/02 21:19:08;;;;;;;171.30;74.40;;;;;;;-1.60;76.57;99391.65;271187;1270;22533;-90
2023/03/02 21:25:09;;;;;;;143.30;65.50;;;;;;;-1.56;76.79;99390.48;270716;1270;25452;-90
2023/03/02 21:31:17;;;;;;;156.60;70.70;;;;;;;-1.64;77.07;99388.81;270674;1270;23964;-89
2023/03/02 21:37:21;;;;;;;152.60;66.90;;;;;;;-1.66;77.47;99384.16;271062;1270;22302;-91
2023/03/02 21:43:26;;;;;;;151.00;65.70;;;;;;;-1.76;77.56;99382.92;270563;1270;22524;-93
2023/03/02 21:49:33;;;;;;;136.00;61.50;;;;;;;-1.80;78.12;99377.27;270249;1271;22590;-90
2023/03/02 21:55:38;;;;;;;140.70;60.90;;;;;;;-1.88;78.16;99379.73;263251;1270;10001979;-91
2023/03/02 22:01:45;;;;;;;134.20;61.50;;;;;;;-1.98;78.33;99376.77;273071;1270;22397;-90
2023/03/02 22:07:55;;;;;;;154.50;70.50;;;;;;;-2.04;78.62;99378.61;272842;1270;22421;-91
2023/03/02 22:14:10;;;;;;;122.30;54.60;;;;;;;-2.08;78.38;99375.42;272088;1265;22298;-91
2023/03/02 22:20:25;;;;;;;129.30;56.10;;;;;;;-2.15;78.63;99364.66;273188;1270;22196;-90
2023/03/02 22:26:37;;;;;;;128.10;59.30;;;;;;;-2.16;79.46;99363.48;272870;1270;22347;-89
2023/03/02 22:32:43;;;;;;;128.60;57.80;;;;;;;-2.22;79.01;99357.33;270051;1270;22575;-90
2023/03/02 22:38:48;;;;;;;122.10;58.20;;;;;;;-2.29;79.63;99356.70;270719;1270;22538;-90
2023/03/02 22:45:11;;;;;;;139.30;60.70;;;;;;;-2.35;79.68;99352.41;269635;1264;136074;-90
2023/03/02 22:51:21;;;;;;;133.10;58.90;;;;;;;-2.50;79.64;99348.45;272562;1270;23011;-90
2023/03/02 22:57:28;;;;;;;140.70;59.70;;;;;;;-2.66;80.06;99342.17;272310;1270;22546;-90
2023/03/02 23:03:37;;;;;;;128.40;57.40;;;;;;;-2.67;80.61;99339.60;270744;1267;23428;-89
2023/03/02 23:09:39;;;;;;;158.50;72.90;;;;;;;-2.78;80.47;99343.86;270991;1270;22691;-89
2023/03/02 23:15:42;;;;;;;139.50;63.40;;;;;;;-2.83;81.09;99339.35;271126;1267;22548;-89
2023/03/02 23:21:46;;;;;;;155.10;67.90;;;;;;;-2.87;80.93;99333.69;270644;1270;22282;-89
2023/03/02 23:27:48;;;;;;;156.80;69.90;;;;;;;-2.91;81.31;99332.40;269794;1270;22556;-89
2023/03/02 23:34:05;;;;;;;178.80;79.10;;;;;;;-2.95;81.18;99331.36;270371;1271;22215;-89
2023/03/02 23:40:08;;;;;;;178.00;81.00;;;;;;;-3.02;81.30;99323.85;273113;1269;22350;-89
2023/03/02 23:46:12;;;;;;;181.30;76.70;;;;;;;-3.05;81.40;99313.58;272952;1270;22228;-88
2023/03/02 23:52:17;;;;;;;165.30;72.70;;;;;;;-3.10;81.75;99310.66;271460;1266;22231;-88
2023/03/02 23:58:20;;;;;;;152.10;66.90;;;;;;;-3.20;81.63;99310.20;270796;1271;22661;-88
